createdAt,value
2022-12-23T00:01:02.931Z,98618.47
2022-12-23T00:06:09.318Z,98616.72
2022-12-23T00:11:16.470Z,98605.50
2022-12-23T00:16:18.615Z,98601.19
2022-12-23T00:21:20.802Z,98590.94
2022-12-23T00:26:24.299Z,98585.91
2022-12-23T00:31:26.437Z,98571.09
2022-12-23T00:36:29.709Z,98558.06
2022-12-23T00:41:31.695Z,98547.56
2022-12-23T00:46:33.587Z,98545.91
2022-12-23T00:51:35.542Z,98556.25
2022-12-23T00:56:37.531Z,98570.25
2022-12-23T01:01:39.592Z,98563.28
2022-12-23T01:06:42.827Z,98570.31
2022-12-23T01:11:44.740Z,98565.19
2022-12-23T01:16:46.734Z,98593.75
2022-12-23T01:21:48.531Z,98584.28
2022-12-23T01:26:50.459Z,98560.84
2022-12-23T01:31:52.365Z,98554.72
2022-12-23T01:36:54.279Z,98566.84
2022-12-23T01:41:56.175Z,98561.59
2022-12-23T01:46:58.078Z,98542.56
2022-12-23T01:52:00.002Z,98547.91
2022-12-23T01:57:02.009Z,98542.63
2022-12-23T02:02:04.058Z,98539.19
2022-12-23T02:07:24.512Z,98525.41
2022-12-23T02:12:46.283Z,98527.16
2022-12-23T02:17:56.677Z,98537.53
2022-12-23T02:23:13.483Z,98532.44
2022-12-23T02:28:39.863Z,98537.56
2022-12-23T02:34:25.229Z,98529.69
2022-12-23T02:39:40.331Z,98528.97
2022-12-23T02:45:05.032Z,98539.28
2022-12-23T02:50:10.680Z,98541.97
2022-12-23T02:55:18.492Z,98544.47
2022-12-23T03:00:21.008Z,98541.88
2022-12-23T03:05:43.757Z,98545.22
2022-12-23T03:10:56.197Z,98536.69
2022-12-23T03:16:11.283Z,98547.81
2022-12-23T03:21:42.481Z,98546.97
2022-12-23T03:27:05.785Z,98543.53
2022-12-23T03:32:07.590Z,98541.03
2022-12-23T03:37:10.286Z,98537.53
2022-12-23T03:42:14.457Z,98541.16
2022-12-23T03:47:26.431Z,98539.38
2022-12-23T03:52:31.365Z,98535.03
2022-12-23T03:57:53.975Z,98538.44
2022-12-23T04:03:14.175Z,98534.84
2022-12-23T04:08:45.426Z,98536.69
2022-12-23T04:13:48.182Z,98535.63
2022-12-23T04:18:49.796Z,98535.78
2022-12-23T04:23:51.628Z,98527.84
2022-12-23T04:28:53.455Z,98526.94
2022-12-23T04:33:55.304Z,98533.88
2022-12-23T04:38:57.113Z,98525.81
2022-12-23T04:43:58.863Z,98525.09
2022-12-23T04:49:00.794Z,98523.34
2022-12-23T04:54:02.651Z,98518.16
2022-12-23T04:59:04.470Z,98519.13
2022-12-23T05:04:06.401Z,98516.53
2022-12-23T05:09:08.249Z,98509.78
2022-12-23T05:14:10.896Z,98507.22
2022-12-23T05:19:12.521Z,98515.13
2022-12-23T05:24:14.598Z,98503.00
2022-12-23T05:29:16.683Z,98501.19
2022-12-23T05:34:18.576Z,98501.19
2022-12-23T05:39:20.325Z,98501.16
2022-12-23T05:44:22.168Z,98505.44
2022-12-23T05:49:23.992Z,98498.59
2022-12-23T05:54:25.831Z,98498.59
2022-12-23T05:59:30.951Z,98499.41
2022-12-23T06:04:33.462Z,98487.22
2022-12-23T06:09:35.240Z,98487.22
2022-12-23T06:14:37.058Z,98496.72
2022-12-23T06:19:38.902Z,98488.91
2022-12-23T06:24:40.753Z,98493.25
2022-12-23T06:29:42.545Z,98487.16
2022-12-23T06:34:44.369Z,98482.75
2022-12-23T06:39:46.142Z,98495.84
2022-12-23T06:44:47.926Z,98497.53
2022-12-23T06:49:49.695Z,98490.59
2022-12-23T06:54:51.572Z,98484.41
2022-12-23T06:59:53.376Z,98487.00
2022-12-23T07:04:55.127Z,98477.53
2022-12-23T07:09:56.966Z,98475.72
2022-12-23T07:14:58.762Z,98467.09
2022-12-23T07:20:00.547Z,98459.22
2022-12-23T07:25:02.410Z,98467.13
2022-12-23T07:30:05.906Z,98458.31
2022-12-23T07:35:08.013Z,98464.47
2022-12-23T07:40:10.422Z,98450.63
2022-12-23T07:45:12.261Z,98452.34
2022-12-23T07:50:14.110Z,98448.78
2022-12-23T07:55:16.054Z,98453.91
2022-12-23T08:00:18.236Z,98447.06
2022-12-23T08:05:20.250Z,98444.50
2022-12-23T08:10:22.272Z,98451.31
2022-12-23T08:15:24.027Z,98452.03
2022-12-23T08:20:25.821Z,98448.47
2022-12-23T08:25:27.690Z,98441.66
2022-12-23T08:30:29.599Z,98438.91
2022-12-23T08:35:31.403Z,98423.25
2022-12-23T08:40:33.232Z,98423.13
2022-12-23T08:45:38.550Z,98425.78
2022-12-23T08:50:41.368Z,98415.31
2022-12-23T08:55:46.983Z,98410.16
2022-12-23T09:00:48.862Z,98411.25
2022-12-23T09:05:50.695Z,98416.31
2022-12-23T09:10:52.528Z,98399.94
2022-12-23T09:15:54.384Z,98387.88
2022-12-23T09:21:00.256Z,98382.69
2022-12-23T09:26:02.110Z,98373.94
2022-12-23T09:31:08.092Z,98370.66
2022-12-23T09:36:09.955Z,98361.81
2022-12-23T09:41:34.054Z,98368.69
2022-12-23T09:46:35.997Z,98358.19
2022-12-23T09:51:37.899Z,98357.44
2022-12-23T09:56:52.937Z,98349.38
2022-12-23T10:02:31.747Z,98341.78
2022-12-23T10:07:37.617Z,98344.13
2022-12-23T10:12:41.170Z,98330.34
2022-12-23T10:17:42.995Z,98317.34
2022-12-23T10:22:45.129Z,98308.56
2022-12-23T10:27:46.920Z,98294.88
2022-12-23T10:33:06.727Z,98290.53
2022-12-23T10:38:18.132Z,98282.81
2022-12-23T10:43:42.787Z,98280.22
2022-12-23T10:48:50.297Z,98274.88
2022-12-23T10:54:02.325Z,98269.75
2022-12-23T10:59:04.089Z,98266.31
2022-12-23T11:04:19.454Z,98262.88
2022-12-23T11:09:37.088Z,98275.00
2022-12-23T11:14:41.394Z,98279.28
2022-12-23T11:19:43.130Z,98276.00
2022-12-23T11:24:45.000Z,98297.66
2022-12-23T11:29:51.690Z,98282.03
2022-12-23T11:34:54.233Z,98283.94
2022-12-23T11:39:56.057Z,98280.44
2022-12-23T11:44:58.933Z,98267.47
2022-12-23T11:50:02.309Z,98262.19
2022-12-23T11:55:06.349Z,98249.28
2022-12-23T12:00:19.547Z,98234.69
2022-12-23T12:05:25.701Z,98245.09
2022-12-23T12:10:29.098Z,98252.03
2022-12-23T12:15:44.079Z,98261.50
2022-12-23T12:20:47.938Z,98259.91
2022-12-23T12:26:13.065Z,98259.81
2022-12-23T12:31:22.239Z,98264.03
2022-12-23T12:36:45.727Z,98252.03
2022-12-23T12:42:09.526Z,98249.44
2022-12-23T12:47:52.141Z,98245.28
2022-12-23T12:52:43.386Z,98250.41
2022-12-23T12:57:45.363Z,98244.38
2022-12-23T13:03:28.352Z,98235.63
2022-12-23T13:08:52.558Z,98231.34
2022-12-23T13:14:06.236Z,98234.06
2022-12-23T13:19:32.519Z,98229.56
2022-12-23T13:24:46.398Z,98228.78
2022-12-23T13:30:04.975Z,98233.22
2022-12-23T13:35:12.861Z,98219.25
2022-12-23T13:40:37.899Z,98221.72
2022-12-23T13:45:39.885Z,98228.66
2022-12-23T13:50:46.204Z,98219.25
2022-12-23T13:56:03.693Z,98206.19
2022-12-23T14:01:08.469Z,98207.94
2022-12-23T14:06:25.480Z,98209.56
2022-12-23T14:11:27.623Z,98209.53
2022-12-23T14:16:59.864Z,98206.03
2022-12-23T14:22:07.367Z,98193.19
2022-12-23T14:27:27.058Z,98191.34
2022-12-23T14:32:30.455Z,98195.72
2022-12-23T14:37:34.415Z,98187.91
2022-12-23T14:42:45.060Z,98179.31
2022-12-23T14:47:46.841Z,98168.16
2022-12-23T14:52:52.041Z,98159.44
2022-12-23T14:58:04.411Z,98158.59
2022-12-23T15:03:09.474Z,98160.38
2022-12-23T15:08:28.985Z,98168.97
2022-12-23T15:13:30.843Z,98173.28
2022-12-23T15:18:32.648Z,98154.25
2022-12-23T15:23:35.324Z,98159.44
2022-12-23T15:28:37.685Z,98162.09
2022-12-23T15:39:01.315Z,98161.88
2022-12-23T15:44:03.137Z,98148.16
2022-12-23T15:49:10.723Z,98137.75
2022-12-23T15:54:26.542Z,98140.50
2022-12-23T15:59:32.339Z,98145.44
2022-12-23T16:04:34.265Z,98143.63
2022-12-23T16:09:36.377Z,98142.91
2022-12-23T16:14:41.644Z,98152.41
2022-12-23T16:19:50.240Z,98145.44
2022-12-23T16:25:04.103Z,98142.97
2022-12-23T16:30:19.913Z,98128.28
2022-12-23T16:35:41.384Z,98138.63
2022-12-23T16:40:44.287Z,98142.19
2022-12-23T16:45:47.073Z,98138.72
2022-12-23T16:50:48.898Z,98137.13
2022-12-23T16:55:56.684Z,98135.41
2022-12-23T17:01:01.961Z,98134.56
2022-12-23T17:06:03.866Z,98137.16
2022-12-23T17:11:06.577Z,98150.97
2022-12-23T17:16:26.402Z,98144.88
2022-12-23T17:21:32.652Z,98138.09
2022-12-23T17:26:34.556Z,98135.47
2022-12-23T17:31:36.479Z,98132.22
2022-12-23T17:36:41.922Z,98135.75
2022-12-23T17:41:46.504Z,98139.22
2022-12-23T17:46:48.484Z,98133.13
2022-12-23T17:51:50.356Z,98131.19
2022-12-23T17:56:52.752Z,98140.94
2022-12-23T18:01:55.104Z,98139.94
2022-12-23T18:06:56.956Z,98151.06
2022-12-23T18:11:58.735Z,98142.50
2022-12-23T18:17:00.663Z,98142.53
2022-12-23T18:22:02.594Z,98154.66
2022-12-23T18:27:11.610Z,98150.44
2022-12-23T18:32:19.922Z,98152.16
2022-12-23T18:37:23.286Z,98153.75
2022-12-23T18:42:25.787Z,98152.97
2022-12-23T18:47:27.815Z,98150.19
2022-12-23T18:52:29.748Z,98156.19
2022-12-23T18:57:31.612Z,98147.63
2022-12-23T19:02:33.500Z,98155.47
2022-12-23T19:07:35.434Z,98145.84
2022-12-23T19:12:37.766Z,98158.78
2022-12-23T19:17:39.781Z,98160.44
2022-12-23T19:22:41.688Z,98167.22
2022-12-23T19:27:43.754Z,98172.50
2022-12-23T19:32:45.632Z,98164.81
2022-12-23T19:37:47.455Z,98166.41
2022-12-23T19:42:49.313Z,98181.06
2022-12-23T19:47:51.142Z,98181.22
2022-12-23T19:52:53.051Z,98186.28
2022-12-23T19:57:56.381Z,98184.66
2022-12-23T20:02:59.253Z,98207.88
2022-12-23T20:08:01.455Z,98207.03
2022-12-23T20:13:03.449Z,98208.72
2022-12-23T20:18:05.358Z,98202.59
2022-12-23T20:23:07.160Z,98203.53
2022-12-23T20:28:08.893Z,98213.16
2022-12-23T20:33:10.742Z,98213.06
2022-12-23T20:38:12.678Z,98213.84
2022-12-23T20:43:15.415Z,98225.13
2022-12-23T20:48:17.610Z,98240.72
2022-12-23T20:53:19.438Z,98225.19
2022-12-23T20:58:21.280Z,98227.75
2022-12-23T21:03:23.280Z,98243.22
2022-12-23T21:08:25.245Z,98249.19
2022-12-23T21:13:27.088Z,98257.75
2022-12-23T21:18:28.947Z,98257.81
2022-12-23T21:23:30.999Z,98263.09
2022-12-23T21:28:32.948Z,98259.56
2022-12-23T21:33:39.006Z,98266.38
2022-12-23T21:38:41.684Z,98267.38
2022-12-23T21:43:43.413Z,98274.25
2022-12-23T21:48:45.224Z,98272.41
2022-12-23T21:53:48.721Z,98270.81
2022-12-23T21:58:50.949Z,98273.34
2022-12-23T22:03:53.137Z,98287.22
2022-12-23T22:08:55.092Z,98284.56
2022-12-23T22:13:57.784Z,98288.00
2022-12-23T22:19:00.314Z,98303.50
2022-12-23T22:24:02.455Z,98311.31
2022-12-23T22:29:05.248Z,98299.16
2022-12-23T22:34:07.534Z,98301.75
2022-12-23T22:39:17.620Z,98321.78
2022-12-23T22:44:21.796Z,98331.28
2022-12-23T22:49:24.015Z,98323.31
2022-12-23T22:54:25.962Z,98325.09
2022-12-23T22:59:27.839Z,98334.56
2022-12-23T23:04:29.699Z,98338.84
2022-12-23T23:09:31.471Z,98338.16
2022-12-23T23:14:33.566Z,98354.63
2022-12-23T23:19:35.431Z,98355.44
2022-12-23T23:24:37.235Z,98367.44
2022-12-23T23:29:39.200Z,98364.84
2022-12-23T23:34:41.048Z,98374.44
2022-12-23T23:39:42.981Z,98375.22
2022-12-23T23:44:44.899Z,98371.09
2022-12-23T23:49:46.861Z,98375.50
2022-12-23T23:54:48.713Z,98374.59
2022-12-23T23:59:50.554Z,98378.19
